Time;durP1;ratioP1;P1;durP2;ratioP2;P2;SDS_P1;SDS_P2;PMS_P1;PMS_P2;Temp;Humidity;BMP_temperature;BMP_pressure;BME280_temperature;BME280_humidity;BME280_pressure;Samples;Min_cycle;Max_cycle;Signal;HPM_P1;HPM_P2
2023/11/25 00:03:42;;;;;;;1.52;0.80;;;;;;;-0.02;100.00;97139.91;15278635;19;20014;-47
2023/11/25 00:09:08;;;;;;;3.60;1.00;;;;;;;-0.02;100.00;97150.50;15277640;19;20018;-48
2023/11/25 00:14:35;;;;;;;2.63;1.08;;;;;;;0.00;100.00;97179.50;15281431;19;20023;-47
2023/11/25 00:20:00;;;;;;;2.55;0.90;;;;;;;-0.01;100.00;97176.00;15270191;19;20487;-51
2023/11/25 00:25:24;;;;;;;2.10;0.90;;;;;;;-0.01;100.00;97199.84;15278962;19;20014;-49
2023/11/25 00:30:52;;;;;;;3.35;1.02;;;;;;;0.03;100.00;97207.53;15274086;19;20487;-51
2023/11/25 00:36:17;;;;;;;4.03;1.10;;;;;;;0.04;100.00;97222.47;15279047;19;20018;-46
2023/11/25 00:41:42;;;;;;;2.72;0.90;;;;;;;0.06;100.00;97225.84;15273086;19;20044;-48
2023/11/25 00:47:13;;;;;;;2.80;1.10;;;;;;;0.05;100.00;97226.78;15274795;19;20025;-51
2023/11/25 00:52:44;;;;;;;5.03;1.10;;;;;;;0.04;100.00;97246.28;15266791;19;20061;-47
2023/11/25 00:58:10;;;;;;;3.33;1.08;;;;;;;0.06;100.00;97263.72;15277748;19;20018;-50
2023/11/25 01:03:37;;;;;;;4.28;1.00;;;;;;;0.07;100.00;97283.09;15273887;19;20081;-50
2023/11/25 01:09:03;;;;;;;6.15;1.10;;;;;;;0.09;100.00;97305.00;15275260;19;20020;-53
2023/11/25 01:14:27;;;;;;;4.57;1.08;;;;;;;0.07;100.00;97313.09;15277627;19;20018;-48
2023/11/25 01:19:55;;;;;;;2.65;1.10;;;;;;;0.07;100.00;97322.81;15270857;19;20019;-52
2023/11/25 01:25:21;;;;;;;3.20;1.20;;;;;;;0.07;100.00;97328.97;15269999;19;20019;-51
2023/11/25 01:30:46;;;;;;;2.85;1.00;;;;;;;0.03;100.00;97338.09;15272053;19;20097;-49
2023/11/25 01:36:15;;;;;;;4.55;0.90;;;;;;;0.02;100.00;97351.47;15275202;19;20107;-52
2023/11/25 01:41:40;;;;;;;4.13;1.20;;;;;;;0.01;100.00;97365.69;15270189;19;20670;-48
2023/11/25 01:47:05;;;;;;;2.55;1.10;;;;;;;-0.01;100.00;97379.88;15272980;19;20014;-47
2023/11/25 01:52:40;;;;;;;3.75;1.00;;;;;;;-0.02;100.00;97391.44;15270887;19;20014;-51
2023/11/25 01:58:06;;;;;;;4.85;1.02;;;;;;;-0.02;100.00;97399.38;15266416;19;20039;-49
2023/11/25 02:03:32;;;;;;;4.80;1.15;;;;;;;0.01;100.00;97416.00;15270368;19;20017;-49
2023/11/25 02:09:00;;;;;;;2.67;0.90;;;;;;;0.01;100.00;97418.63;15268464;19;20025;-49
2023/11/25 02:14:24;;;;;;;2.03;0.90;;;;;;;0.00;100.00;97428.41;15272579;19;20017;-50
2023/11/25 02:19:49;;;;;;;2.90;1.10;;;;;;;0.01;100.00;97423.94;15268763;19;20014;-52
2023/11/25 02:25:17;;;;;;;1.90;0.82;;;;;;;0.01;100.00;97434.53;15268489;19;20011;-54
2023/11/25 02:30:42;;;;;;;3.38;1.10;;;;;;;0.02;100.00;97425.63;15261782;19;20014;-50
2023/11/25 02:36:08;;;;;;;4.00;1.10;;;;;;;0.02;100.00;97436.22;15272651;19;20025;-49
2023/11/25 02:41:37;;;;;;;5.47;1.00;;;;;;;0.01;100.00;97456.53;15265965;19;20039;-51
2023/11/25 02:47:02;;;;;;;5.40;1.20;;;;;;;0.06;100.00;97457.03;15267369;19;20468;-50
2023/11/25 02:52:35;;;;;;;4.45;1.30;;;;;;;0.04;100.00;97461.59;15266406;19;20018;-49
2023/11/25 02:58:03;;;;;;;3.75;0.95;;;;;;;0.03;100.00;97464.38;15269549;19;20018;-50
2023/11/25 03:03:28;;;;;;;4.82;1.50;;;;;;;0.01;100.00;97471.59;15010739;19;5001461;-50
2023/11/25 03:08:53;;;;;;;8.20;1.40;;;;;;;-0.02;100.00;97464.75;15269281;19;20019;-50
2023/11/25 03:14:20;;;;;;;4.40;1.63;;;;;;;-0.06;100.00;97469.41;15288560;19;20070;-48
2023/11/25 03:19:45;;;;;;;4.55;1.55;;;;;;;-0.07;100.00;97473.03;15280851;19;20026;-49
2023/11/25 03:25:10;;;;;;;4.28;1.80;;;;;;;-0.08;100.00;97481.09;15286823;19;20018;-50
2023/11/25 03:30:38;;;;;;;3.45;1.52;;;;;;;-0.10;100.00;97491.81;15280208;19;20035;-51
2023/11/25 03:36:02;;;;;;;5.43;1.48;;;;;;;-0.16;100.00;97489.59;15282119;19;20519;-52
2023/11/25 03:41:28;;;;;;;5.30;1.50;;;;;;;-0.24;100.00;97499.94;15314863;19;20015;-52
2023/11/25 03:46:55;;;;;;;9.52;1.60;;;;;;;-0.30;100.00;97503.06;15308631;19;20015;-52
2023/11/25 03:52:27;;;;;;;2.67;1.13;;;;;;;-0.35;100.00;97498.97;15289533;19;20044;-50
2023/11/25 03:57:52;;;;;;;2.80;1.17;;;;;;;-0.35;100.00;97517.47;15278252;19;20014;-52
2023/11/25 04:03:19;;;;;;;4.05;1.17;;;;;;;-0.35;100.00;97535.16;15277917;19;20472;-52
2023/11/25 04:08:44;;;;;;;2.85;1.15;;;;;;;-0.37;100.00;97529.97;15271581;19;20036;-51
2023/11/25 04:14:08;;;;;;;5.13;0.93;;;;;;;-0.40;100.00;97534.66;15278949;19;20498;-53
2023/11/25 04:19:36;;;;;;;3.33;1.10;;;;;;;-0.47;100.00;97523.69;15272602;19;20364;-50
2023/11/25 04:25:03;;;;;;;2.50;1.00;;;;;;;-0.51;100.00;97531.00;15280145;19;20033;-51
2023/11/25 04:30:28;;;;;;;3.53;1.10;;;;;;;-0.56;100.00;97532.31;15272565;19;20018;-52
2023/11/25 04:35:56;;;;;;;2.80;0.98;;;;;;;-0.59;100.00;97532.53;15277048;19;20078;-51
2023/11/25 04:41:22;;;;;;;3.50;1.30;;;;;;;-0.65;100.00;97542.59;15267515;19;20094;-50
2023/11/25 04:46:48;;;;;;;4.90;1.33;;;;;;;-0.70;100.00;97536.81;15270736;19;20723;-49
2023/11/25 04:52:23;;;;;;;3.17;1.10;;;;;;;-0.79;100.00;97540.13;15271119;19;20033;-50
2023/11/25 04:57:47;;;;;;;3.88;0.93;;;;;;;-0.87;100.00;97531.91;15276732;19;20013;-51
2023/11/25 05:03:13;;;;;;;5.00;1.08;;;;;;;-0.93;100.00;97534.03;15273600;19;20039;-47
2023/11/25 05:08:45;;;;;;;4.63;1.10;;;;;;;-0.98;100.00;97543.25;15271470;19;20025;-50
2023/11/25 05:14:13;;;;;;;4.20;1.10;;;;;;;-1.00;100.00;97548.66;15275607;19;20021;-49
2023/11/25 05:19:38;;;;;;;5.78;1.10;;;;;;;-0.99;100.00;97547.69;15272564;19;20013;-47
2023/11/25 05:25:05;;;;;;;3.22;1.00;;;;;;;-0.99;100.00;97562.72;15275542;19;20367;-50
2023/11/25 05:30:30;;;;;;;4.50;1.10;;;;;;;-0.95;100.00;97565.03;15268817;19;20018;-53
2023/11/25 05:35:54;;;;;;;4.47;1.02;;;;;;;-0.89;100.00;97568.22;15274522;19;20022;-47
2023/11/25 05:41:22;;;;;;;7.50;1.48;;;;;;;-0.86;100.00;97565.31;15271350;19;20077;-53
2023/11/25 05:46:47;;;;;;;4.45;1.23;;;;;;;-0.83;100.00;97568.63;15268816;19;20406;-51
2023/11/25 05:52:20;;;;;;;3.63;1.13;;;;;;;-0.80;100.00;97572.81;15271011;19;20078;-50
2023/11/25 05:57:50;;;;;;;3.20;0.93;;;;;;;-0.78;100.00;97570.91;15273874;19;20015;-51
2023/11/25 06:03:16;;;;;;;4.38;0.93;;;;;;;-0.76;100.00;97576.09;15271004;19;20021;-52
2023/11/25 06:08:42;;;;;;;6.28;1.38;;;;;;;-0.76;100.00;97573.44;15265470;19;20386;-52
2023/11/25 06:14:12;;;;;;;5.18;1.10;;;;;;;-0.78;100.00;97574.41;15262555;19;20077;-48
2023/11/25 06:19:37;;;;;;;4.55;1.08;;;;;;;-0.80;100.00;97572.81;15266717;19;20021;-48
2023/11/25 06:25:04;;;;;;;4.88;1.10;;;;;;;-0.81;100.00;97565.84;15266130;19;20023;-51
2023/11/25 06:30:33;;;;;;;5.55;1.23;;;;;;;-0.82;100.00;97570.28;15263634;19;20078;-49
2023/11/25 06:35:58;;;;;;;3.38;1.00;;;;;;;-0.82;100.00;97572.09;15263541;19;20063;-51
2023/11/25 06:41:25;;;;;;;3.45;1.13;;;;;;;-0.81;100.00;97577.25;15263640;19;20125;-53
2023/11/25 06:46:53;;;;;;;8.38;1.00;;;;;;;-0.76;100.00;97584.03;15262230;19;20508;-48
2023/11/25 06:52:23;;;;;;;5.63;1.10;;;;;;;-0.75;100.00;97583.91;15264698;19;20022;-47
2023/11/25 06:57:49;;;;;;;6.10;1.13;;;;;;;-0.74;100.00;97579.47;15267498;19;20015;-50
2023/11/25 07:03:18;;;;;;;5.50;1.48;;;;;;;-0.71;100.00;97576.63;15265394;19;20056;-48
2023/11/25 07:08:44;;;;;;;7.55;1.30;;;;;;;-0.70;100.00;97565.91;15267300;19;20010;-54
2023/11/25 07:14:09;;;;;;;5.85;1.08;;;;;;;-0.71;100.00;97555.44;15270061;19;20074;-49
2023/11/25 07:19:36;;;;;;;6.75;1.05;;;;;;;-0.71;100.00;97563.38;15259158;19;20029;-53
2023/11/25 07:25:02;;;;;;;3.78;1.15;;;;;;;-0.69;100.00;97549.09;15264653;19;20014;-51
2023/11/25 07:30:34;;;;;;;6.43;1.20;;;;;;;-0.64;100.00;97557.50;15261269;19;20018;-52
2023/11/25 07:36:02;;;;;;;;;;;;;;;-0.60;100.00;97557.28;15261135;19;20018;-48
2023/11/25 07:41:29;;;;;;;4.57;1.02;;;;;;;-0.51;100.00;97549.53;15258922;19;20341;-52
2023/11/25 07:46:55;;;;;;;4.93;1.25;;;;;;;-0.48;100.00;97536.09;15264384;19;20017;-49
2023/11/25 07:52:31;;;;;;;4.57;1.10;;;;;;;-0.44;100.00;97538.47;15254740;19;20021;-50
2023/11/25 07:57:58;;;;;;;8.75;1.30;;;;;;;-0.36;100.00;97539.59;15278120;19;20025;-54
2023/11/25 08:03:24;;;;;;;5.28;1.25;;;;;;;-0.24;100.00;97529.91;15279025;19;20713;-50
2023/11/25 08:08:52;;;;;;;6.43;0.98;;;;;;;-0.16;100.00;97531.97;15274661;19;20019;-52
2023/11/25 08:14:17;;;;;;;6.47;1.13;;;;;;;-0.08;100.00;97531.38;15279780;19;20089;-48
2023/11/25 08:19:42;;;;;;;3.78;1.27;;;;;;;0.03;100.00;97538.53;15273270;19;20043;-48
2023/11/25 08:25:10;;;;;;;5.43;1.58;;;;;;;0.13;100.00;97528.91;15272021;19;20363;-49
2023/11/25 08:30:36;;;;;;;5.57;1.40;;;;;;;0.23;100.00;97521.94;15273562;19;20010;-52
2023/11/25 08:35:54;;;;;;;8.02;1.58;;;;;;;0.27;100.00;97515.47;15272813;19;20337;-50
2023/11/25 08:41:24;;;;;;;4.95;1.40;;;;;;;0.34;100.00;97505.22;15272292;19;20022;-48
2023/11/25 08:46:51;;;;;;;6.43;1.52;;;;;;;0.42;100.00;97496.66;15277835;19;20018;-49
2023/11/25 08:52:17;;;;;;;5.28;1.45;;;;;;;0.47;100.00;97504.28;15014866;19;5001657;-49
2023/11/25 08:57:45;;;;;;;8.38;1.90;;;;;;;0.47;100.00;97501.63;15271462;19;20011;-50
2023/11/25 09:03:10;;;;;;;7.40;1.70;;;;;;;0.48;100.00;97500.63;15274114;19;20078;-54
2023/11/25 09:08:36;;;;;;;7.43;1.35;;;;;;;0.46;100.00;97487.50;15273765;19;20017;-49
2023/11/25 09:14:05;;;;;;;7.05;1.70;;;;;;;0.47;100.00;97483.06;15275642;19;20021;-49
2023/11/25 09:19:33;;;;;;;5.72;1.70;;;;;;;0.47;100.00;97477.78;15273219;19;20467;-52
2023/11/25 09:25:01;;;;;;;6.47;2.10;;;;;;;0.48;100.00;97487.38;15275645;19;20021;-52
2023/11/25 09:36:13;;;;;;;6.35;1.95;;;;;;;0.44;100.00;97476.19;15280094;19;20013;-51
2023/11/25 09:41:39;;;;;;;6.20;2.60;;;;;;;0.43;100.00;97482.44;15266714;19;20011;-50
2023/11/25 09:47:04;;;;;;;9.65;2.00;;;;;;;0.43;100.00;97479.78;15275022;19;20054;-52
2023/11/25 09:52:36;;;;;;;7.82;1.92;;;;;;;0.40;100.00;97477.41;15265533;19;20082;-51
2023/11/25 09:58:08;;;;;;;8.02;2.00;;;;;;;0.37;100.00;97464.41;15269165;19;20019;-51
2023/11/25 10:03:38;;;;;;;9.52;1.83;;;;;;;0.39;100.00;97465.13;15261284;19;20022;-51
2023/11/25 10:09:09;;;;;;;8.43;2.15;;;;;;;0.43;100.00;97464.75;15265227;19;20021;-51
2023/11/25 10:14:36;;;;;;;9.65;2.10;;;;;;;0.51;100.00;97453.56;15268977;19;20018;-50
2023/11/25 10:20:10;;;;;;;13.57;2.83;;;;;;;0.53;100.00;97446.31;15265421;19;20850;-51
2023/11/25 10:25:39;;;;;;;7.72;2.10;;;;;;;0.46;100.00;97445.13;15270526;19;20390;-55
2023/11/25 10:30:59;;;;;;;8.77;2.38;;;;;;;0.56;100.00;97446.06;15266301;19;20448;-52
2023/11/25 10:36:24;;;;;;;8.50;1.90;;;;;;;0.53;100.00;97440.16;15264158;19;20027;-53
2023/11/25 10:41:59;;;;;;;7.28;2.10;;;;;;;0.57;100.00;97431.03;15264143;19;20022;-51
2023/11/25 10:47:32;;;;;;;5.32;1.80;;;;;;;0.64;100.00;97426.06;15261098;19;20018;-53
2023/11/25 10:53:06;;;;;;;6.93;1.67;;;;;;;0.71;100.00;97416.66;15264523;19;20021;-52
2023/11/25 10:58:34;;;;;;;7.78;1.60;;;;;;;0.77;100.00;97401.09;15265287;19;20482;-55
2023/11/25 11:04:07;;;;;;;8.68;1.80;;;;;;;0.83;100.00;97383.84;15261915;19;20022;-53
2023/11/25 11:09:35;;;;;;;9.80;1.77;;;;;;;0.89;100.00;97383.31;15260817;19;20035;-55
2023/11/25 11:15:10;;;;;;;8.38;1.65;;;;;;;0.95;100.00;97373.19;15266876;19;20019;-56
2023/11/25 11:20:39;;;;;;;9.57;2.15;;;;;;;0.98;100.00;97370.28;15266316;19;20357;-52
2023/11/25 11:26:14;;;;;;;7.65;1.80;;;;;;;0.97;100.00;97365.97;15293850;19;20043;-58
2023/11/25 11:31:59;;;;;;;8.13;1.85;;;;;;;0.96;100.00;97345.72;15302201;19;20015;-58
2023/11/25 11:37:24;;;;;;;9.82;2.25;;;;;;;0.98;100.00;97349.91;15306754;19;20485;-58
2023/11/25 11:42:50;;;;;;;7.97;1.70;;;;;;;1.00;100.00;97341.84;15278894;19;20081;-54
2023/11/25 11:48:22;;;;;;;10.50;1.80;;;;;;;1.00;100.00;97347.16;15281512;19;20408;-53
2023/11/25 11:53:54;;;;;;;6.07;1.80;;;;;;;1.00;100.00;97333.88;15274073;19;20018;-55
2023/11/25 11:59:18;;;;;;;7.20;1.90;;;;;;;1.01;100.00;97354.09;15278604;19;20479;-54
2023/11/25 12:04:46;;;;;;;7.97;1.90;;;;;;;1.03;100.00;97342.41;15280634;19;20010;-58
2023/11/25 12:10:12;;;;;;;6.50;1.90;;;;;;;1.09;100.00;97351.69;15270516;19;20018;-53
2023/11/25 12:15:37;;;;;;;6.97;1.65;;;;;;;1.14;100.00;97349.47;15279328;19;20412;-56
2023/11/25 12:21:08;;;;;;;5.80;1.70;;;;;;;1.18;100.00;97344.75;15273817;19;20015;-50
2023/11/25 12:26:35;;;;;;;5.78;1.85;;;;;;;1.25;100.00;97356.53;15279695;19;20014;-54
2023/11/25 12:32:00;;;;;;;7.55;1.92;;;;;;;1.34;100.00;97354.94;15271176;19;20016;-50
2023/11/25 12:37:27;;;;;;;6.47;2.10;;;;;;;1.37;100.00;97359.94;15278541;19;20015;-55
2023/11/25 12:42:55;;;;;;;7.68;2.00;;;;;;;1.43;100.00;97356.78;15268633;19;20039;-52
2023/11/25 12:48:21;;;;;;;7.25;1.73;;;;;;;1.47;100.00;97355.53;15276032;19;20697;-56
2023/11/25 12:54:06;;;;;;;3.88;1.40;;;;;;;1.54;100.00;97362.03;15270410;19;20025;-55
2023/11/25 12:59:33;;;;;;;6.05;1.90;;;;;;;1.62;100.00;97365.84;15273717;19;20098;-52
2023/11/25 13:04:57;;;;;;;7.82;2.10;;;;;;;1.64;100.00;97350.63;15271380;19;20010;-53
2023/11/25 13:10:24;;;;;;;8.48;1.90;;;;;;;1.69;100.00;97356.41;15269323;19;20471;-53
2023/11/25 13:15:50;;;;;;;4.47;1.58;;;;;;;1.71;100.00;97340.31;15270565;19;20077;-54
2023/11/25 13:21:15;;;;;;;3.58;1.50;;;;;;;1.74;100.00;97356.81;15269150;19;20476;-57
2023/11/25 13:26:42;;;;;;;4.72;1.30;;;;;;;1.76;100.00;97354.88;15274535;19;20022;-55
2023/11/25 13:32:10;;;;;;;4.70;1.40;;;;;;;1.83;100.00;97361.34;15266997;19;20020;-52
2023/11/25 13:37:36;;;;;;;4.47;1.73;;;;;;;1.84;100.00;97363.00;15273965;19;20021;-53
2023/11/25 13:43:04;;;;;;;4.05;1.40;;;;;;;1.83;100.00;97366.63;15267547;19;20415;-53
2023/11/25 13:48:28;;;;;;;3.50;1.63;;;;;;;1.83;100.00;97360.50;15265725;19;20010;-52
2023/11/25 13:54:00;;;;;;;3.15;1.50;;;;;;;1.81;100.00;97360.66;15265855;19;20018;-53
2023/11/25 13:59:27;;;;;;;3.08;1.50;;;;;;;1.80;100.00;97361.63;15266465;19;20081;-55
2023/11/25 14:04:52;;;;;;;3.97;1.60;;;;;;;1.81;100.00;97367.75;15267212;19;20020;-51
2023/11/25 14:10:16;;;;;;;3.35;1.40;;;;;;;1.82;100.00;97367.63;15267972;19;20045;-57
2023/11/25 14:15:44;;;;;;;1.98;1.10;;;;;;;1.82;100.00;97372.91;15270096;19;20512;-56
2023/11/25 14:21:09;;;;;;;2.53;1.30;;;;;;;1.84;100.00;97370.16;15257634;19;20014;-53
2023/11/25 14:26:34;;;;;;;2.88;1.10;;;;;;;1.86;100.00;97376.19;15271484;19;20025;-51
2023/11/25 14:32:02;;;;;;;1.92;0.95;;;;;;;1.86;100.00;97376.19;15265513;19;20018;-55
2023/11/25 14:37:28;;;;;;;1.10;0.85;;;;;;;1.90;100.00;97379.41;15269703;19;20086;-56
2023/11/25 14:42:53;;;;;;;2.17;0.93;;;;;;;1.85;100.00;97371.84;15268907;19;20030;-54
2023/11/25 14:48:21;;;;;;;0.98;0.90;;;;;;;1.89;100.00;97388.34;15267679;19;20055;-57
2023/11/25 14:53:49;;;;;;;0.90;0.90;;;;;;;1.88;100.00;97384.88;15261037;19;20015;-54
2023/11/25 14:59:14;;;;;;;1.45;1.00;;;;;;;1.87;100.00;97400.91;15266582;19;20022;-51
2023/11/25 15:04:43;;;;;;;1.40;1.00;;;;;;;1.87;100.00;97395.59;15276376;19;20031;-56
2023/11/25 15:10:10;;;;;;;1.83;1.00;;;;;;;1.85;100.00;97396.56;15280024;19;20043;-54
2023/11/25 15:15:34;;;;;;;1.98;1.00;;;;;;;1.83;100.00;97398.50;15283311;19;20014;-55
2023/11/25 15:21:03;;;;;;;1.58;0.90;;;;;;;1.82;100.00;97396.81;15278823;19;20027;-58
2023/11/25 15:26:29;;;;;;;1.70;1.20;;;;;;;1.79;100.00;97394.44;15278224;19;20134;-57
2023/11/25 15:31:54;;;;;;;1.65;1.10;;;;;;;1.78;100.00;97405.19;15272742;19;20033;-53
2023/11/25 15:37:22;;;;;;;2.17;1.20;;;;;;;1.75;100.00;97411.59;15284310;19;20531;-53
2023/11/25 15:42:47;;;;;;;1.48;1.10;;;;;;;1.74;100.00;97415.22;15276440;19;20393;-51
2023/11/25 15:48:11;;;;;;;2.03;1.20;;;;;;;1.73;100.00;97408.25;15279980;19;20018;-50
2023/11/25 15:53:46;;;;;;;2.20;0.90;;;;;;;1.73;100.00;97407.41;15276984;19;20026;-52
2023/11/25 15:59:12;;;;;;;1.85;1.00;;;;;;;1.72;100.00;97414.53;15274241;19;20015;-51
2023/11/25 16:04:36;;;;;;;1.27;1.05;;;;;;;1.74;100.00;97430.34;15278402;19;20025;-51
2023/11/25 16:10:09;;;;;;;2.58;1.30;;;;;;;1.74;100.00;97435.66;15276825;19;20720;-54
2023/11/25 16:15:35;;;;;;;2.92;1.25;;;;;;;1.76;100.00;97439.84;15277734;19;20027;-52
2023/11/25 16:20:59;;;;;;;1.30;1.17;;;;;;;1.75;100.00;97446.13;15273874;19;20362;-53
2023/11/25 16:26:27;;;;;;;3.10;1.73;;;;;;;1.77;100.00;97441.53;15278894;19;20077;-53
2023/11/25 16:31:51;;;;;;;2.42;1.63;;;;;;;1.78;100.00;97452.97;15267019;19;20527;-54
2023/11/25 16:37:16;;;;;;;3.00;1.45;;;;;;;1.78;100.00;97455.63;15279310;19;20411;-51
2023/11/25 16:42:43;;;;;;;2.08;1.35;;;;;;;1.78;100.00;97452.97;15276801;19;20036;-51
2023/11/25 16:48:09;;;;;;;2.03;1.40;;;;;;;1.79;100.00;97466.16;15275097;19;20018;-52
2023/11/25 16:53:40;;;;;;;2.50;1.50;;;;;;;1.79;100.00;97482.09;15270262;19;20018;-51
2023/11/25 16:59:09;;;;;;;2.38;1.60;;;;;;;1.81;100.00;97487.25;15274309;19;20011;-50
2023/11/25 17:04:33;;;;;;;2.30;1.30;;;;;;;1.83;100.00;97504.75;15271812;19;20015;-52
2023/11/25 17:09:59;;;;;;;3.22;1.10;;;;;;;1.82;100.00;97518.97;15273993;19;20047;-51
2023/11/25 17:15:26;;;;;;;1.90;1.00;;;;;;;1.82;100.00;97513.69;15273580;19;20031;-54
2023/11/25 17:20:51;;;;;;;2.35;1.13;;;;;;;1.82;100.00;97520.81;15271405;19;20295;-50
2023/11/25 17:26:16;;;;;;;1.50;0.85;;;;;;;1.81;100.00;97537.72;15274241;19;20020;-53
2023/11/25 17:31:43;;;;;;;1.80;1.00;;;;;;;1.82;100.00;97539.41;15268349;19;20054;-52
2023/11/25 17:37:08;;;;;;;2.17;1.00;;;;;;;1.78;100.00;97554.75;15270026;19;20014;-52
2023/11/25 17:42:32;;;;;;;1.38;1.00;;;;;;;1.67;100.00;97558.28;15270396;19;20022;-51
2023/11/25 17:48:00;;;;;;;2.30;0.88;;;;;;;1.35;100.00;97577.69;15272270;19;20014;-50
2023/11/25 17:53:31;;;;;;;1.55;1.02;;;;;;;1.01;100.00;97561.84;15267786;19;20259;-52
2023/11/25 17:58:56;;;;;;;2.03;1.08;;;;;;;0.92;100.00;97579.31;15271577;19;20026;-52
2023/11/25 18:04:24;;;;;;;3.78;1.70;;;;;;;0.92;100.00;97584.63;15270496;19;20480;-51
2023/11/25 18:09:55;;;;;;;5.32;1.50;;;;;;;0.87;100.00;97591.25;15269606;19;20609;-52
2023/11/25 18:15:20;;;;;;;4.07;1.70;;;;;;;0.80;100.00;97604.16;15271110;19;20015;-53
2023/11/25 18:20:47;;;;;;;2.60;1.20;;;;;;;0.74;100.00;97617.91;15267062;19;20046;-55
2023/11/25 18:26:13;;;;;;;4.90;1.45;;;;;;;0.68;100.00;97629.81;15272130;19;20627;-50
2023/11/25 18:31:38;;;;;;;3.75;1.40;;;;;;;0.62;100.00;97627.63;15264163;19;20019;-54
2023/11/25 18:37:05;;;;;;;4.25;1.30;;;;;;;0.56;100.00;97641.38;15262992;19;20031;-55
2023/11/25 18:42:31;;;;;;;3.63;1.40;;;;;;;0.50;100.00;97645.31;15266616;19;20013;-50
2023/11/25 18:47:57;;;;;;;3.40;1.17;;;;;;;0.45;100.00;97655.41;15265510;19;20010;-55
2023/11/25 18:53:24;;;;;;;7.10;1.90;;;;;;;0.43;100.00;97663.50;15260472;19;20018;-53
2023/11/25 18:58:49;;;;;;;7.60;1.60;;;;;;;0.40;100.00;97670.84;15265692;19;20041;-50
2023/11/25 19:04:14;;;;;;;5.03;1.40;;;;;;;0.44;100.00;97674.94;15264793;19;20427;-50
2023/11/25 19:09:43;;;;;;;3.42;1.50;;;;;;;0.48;100.00;97692.28;15261918;19;20025;-55
2023/11/25 19:15:12;;;;;;;4.55;1.35;;;;;;;0.53;100.00;97686.66;15242735;19;20480;-51
2023/11/25 19:20:36;;;;;;;4.93;1.50;;;;;;;0.57;100.00;97698.72;15259518;19;20034;-52
2023/11/25 19:26:04;;;;;;;3.53;1.60;;;;;;;0.59;100.00;97705.59;15266465;19;20014;-51
2023/11/25 19:31:28;;;;;;;2.55;1.40;;;;;;;0.63;100.00;97710.66;15260756;19;20875;-53
2023/11/25 19:36:53;;;;;;;3.88;1.30;;;;;;;0.61;100.00;97708.09;15267895;19;20809;-50
2023/11/25 19:42:21;;;;;;;3.55;1.42;;;;;;;0.61;100.00;97713.41;15258971;19;20371;-54
2023/11/25 19:47:47;;;;;;;4.85;1.30;;;;;;;0.61;100.00;97721.34;15273736;19;19999;-52
2023/11/25 19:53:19;;;;;;;2.72;1.52;;;;;;;0.61;100.00;97734.63;15278285;19;20042;-49
2023/11/25 19:59:06;;;;;;;5.85;2.10;;;;;;;0.52;100.00;97751.22;15277686;19;20027;-55
2023/11/25 20:04:31;;;;;;;3.63;1.42;;;;;;;0.41;100.00;97752.03;15278258;19;20024;-49
2023/11/25 20:10:00;;;;;;;1.95;1.30;;;;;;;0.36;100.00;97762.09;15274869;19;20035;-52
2023/11/25 20:15:27;;;;;;;2.17;1.20;;;;;;;0.32;100.00;97773.88;15274533;19;20038;-48
2023/11/25 20:20:52;;;;;;;2.25;1.60;;;;;;;0.28;100.00;97775.91;15273900;19;20018;-49
2023/11/25 20:26:16;;;;;;;2.92;1.70;;;;;;;0.27;100.00;97790.97;15275168;19;20010;-52
2023/11/25 20:31:44;;;;;;;3.08;1.80;;;;;;;0.30;100.00;97800.50;15266850;19;20014;-52
2023/11/25 20:37:10;;;;;;;2.22;1.80;;;;;;;0.33;100.00;97804.72;15275356;19;20022;-51
2023/11/25 20:42:35;;;;;;;3.70;1.88;;;;;;;0.36;100.00;97804.50;15276487;19;20029;-50
2023/11/25 20:48:04;;;;;;;3.55;2.05;;;;;;;0.37;100.00;97822.94;15268907;19;20026;-55
2023/11/25 20:53:35;;;;;;;2.75;1.73;;;;;;;0.39;100.00;97825.47;15268712;19;20026;-54
2023/11/25 20:59:00;;;;;;;2.33;1.90;;;;;;;0.40;100.00;97828.00;15273870;19;20015;-55
2023/11/25 21:04:28;;;;;;;3.25;1.88;;;;;;;0.40;100.00;97827.19;15275281;19;20479;-51
2023/11/25 21:09:53;;;;;;;4.25;1.80;;;;;;;0.39;100.00;97834.28;15273571;19;20020;-51
2023/11/25 21:15:20;;;;;;;4.03;2.00;;;;;;;0.40;100.00;97838.59;15270232;19;20073;-49
2023/11/25 21:20:48;;;;;;;4.90;2.03;;;;;;;0.39;100.00;97846.69;15262739;19;20021;-53
2023/11/25 21:26:14;;;;;;;2.92;2.20;;;;;;;0.38;100.00;97845.00;15273828;19;20018;-52
2023/11/25 21:31:39;;;;;;;3.10;1.80;;;;;;;0.38;100.00;97845.00;15268321;19;20015;-52
2023/11/25 21:37:06;;;;;;;2.78;1.90;;;;;;;0.38;100.00;97856.41;15274972;19;20027;-53
2023/11/25 21:42:32;;;;;;;2.60;2.00;;;;;;;0.40;100.00;97858.97;15273837;19;20023;-54
2023/11/25 21:47:56;;;;;;;3.88;2.05;;;;;;;0.39;100.00;97859.94;15273059;19;20026;-52
2023/11/25 21:53:30;;;;;;;3.08;1.98;;;;;;;0.38;100.00;97867.03;15261259;19;20093;-50
2023/11/25 21:58:55;;;;;;;3.95;2.22;;;;;;;0.38;100.00;97877.63;15270542;19;20086;-53
2023/11/25 22:04:22;;;;;;;6.13;2.33;;;;;;;0.39;100.00;97886.44;15270103;19;20369;-50
2023/11/25 22:09:49;;;;;;;4.32;2.20;;;;;;;0.40;100.00;97896.06;15263012;19;20045;-54
2023/11/25 22:15:15;;;;;;;4.40;2.10;;;;;;;0.39;100.00;97904.97;15263041;19;20019;-53
2023/11/25 22:20:40;;;;;;;4.80;2.00;;;;;;;0.36;100.00;97905.19;15266368;19;20015;-53
2023/11/25 22:26:15;;;;;;;3.65;2.10;;;;;;;0.36;100.00;97907.84;15262592;19;20086;-56
2023/11/25 22:31:41;;;;;;;2.85;1.60;;;;;;;0.33;100.00;97918.66;15261301;19;20015;-55
2023/11/25 22:37:05;;;;;;;5.95;1.70;;;;;;;0.30;100.00;97936.44;15268025;19;20022;-53
2023/11/25 22:42:35;;;;;;;1.77;1.25;;;;;;;0.29;100.00;97940.06;15266082;19;20010;-55
2023/11/25 22:48:00;;;;;;;2.78;1.50;;;;;;;0.29;100.00;97948.00;15265182;19;20149;-55
2023/11/25 22:53:31;;;;;;;2.63;1.50;;;;;;;0.30;100.00;97957.66;15266797;19;20048;-57
2023/11/25 22:58:58;;;;;;;3.58;1.60;;;;;;;0.27;100.00;97955.25;15259377;19;20025;-56
2023/11/25 23:04:23;;;;;;;2.13;1.60;;;;;;;0.25;100.00;97958.94;15267368;19;20010;-53
2023/11/25 23:09:49;;;;;;;2.00;1.30;;;;;;;0.22;100.00;97960.00;15267674;19;20015;-55
2023/11/25 23:15:17;;;;;;;2.47;1.55;;;;;;;0.24;100.00;97966.03;15267786;19;20356;-51
2023/11/25 23:20:42;;;;;;;2.70;1.20;;;;;;;0.38;100.00;97974.84;15268276;19;20368;-53
2023/11/25 23:26:06;;;;;;;3.92;1.40;;;;;;;0.39;100.00;97969.41;15273908;19;20011;-52
2023/11/25 23:31:33;;;;;;;2.47;1.30;;;;;;;0.45;100.00;97978.72;15269347;19;20057;-51
2023/11/25 23:36:58;;;;;;;2.85;1.30;;;;;;;0.45;100.00;97981.38;15287969;19;20015;-52
2023/11/25 23:42:23;;;;;;;2.55;1.10;;;;;;;0.45;100.00;97986.69;15285314;19;20014;-50
2023/11/25 23:47:50;;;;;;;5.15;1.30;;;;;;;0.42;100.00;97984.25;15281338;19;20365;-52
2023/11/25 23:53:21;;;;;;;1.42;1.10;;;;;;;0.40;100.00;97984.34;15278735;19;20030;-50
2023/11/25 23:58:46;;;;;;;2.90;1.05;;;;;;;0.34;100.00;97976.00;15280256;19;20026;-50
